Time;durP1;ratioP1;P1;durP2;ratioP2;P2;SDS_P1;SDS_P2;PMS_P1;PMS_P2;Temp;Humidity;BMP_temperature;BMP_pressure;BME280_temperature;BME280_humidity;BME280_pressure;Samples;Min_cycle;Max_cycle;Signal;HPM_P1;HPM_P2
2024/04/14 00:00:46;;;;;;;38.10;18.60;;;;;;;11.04;100.00;100907.07;105707;1255;62736;-77
2024/04/14 00:03:13;;;;;;;35.50;17.90;;;;;;;11.09;100.00;100908.36;105765;1253;71586;-76
2024/04/14 00:05:40;;;;;;;31.50;17.00;;;;;;;11.15;100.00;100910.66;105829;1255;61676;-77
2024/04/14 00:08:08;;;;;;;43.90;18.00;;;;;;;11.20;100.00;100909.65;105974;1256;60401;-76
2024/04/14 00:10:35;;;;;;;33.40;18.60;;;;;;;11.25;100.00;100906.08;105811;1256;73869;-76
2024/04/14 00:13:02;;;;;;;39.90;18.80;;;;;;;11.29;100.00;100909.32;105752;1255;63582;-77
2024/04/14 00:18:20;;;;;;;33.40;18.10;;;;;;;11.38;100.00;100908.77;102790;1293;599418;-79
2024/04/14 00:20:48;;;;;;;30.40;18.60;;;;;;;11.41;100.00;100905.99;104913;1265;62227;-76
2024/04/14 00:23:15;;;;;;;35.90;18.40;;;;;;;11.47;100.00;100907.73;104891;1267;59545;-75
2024/04/14 00:25:43;;;;;;;33.70;19.60;;;;;;;11.54;100.00;100908.05;104744;1264;73028;-76
2024/04/14 00:28:10;;;;;;;40.10;20.80;;;;;;;11.61;100.00;100906.21;104815;1264;65928;-77
2024/04/14 00:30:37;;;;;;;38.40;18.10;;;;;;;11.68;100.00;100906.67;104845;1266;71282;-76
2024/04/14 00:33:04;;;;;;;38.80;19.60;;;;;;;11.73;100.00;100909.20;105007;1264;222604;-77
2024/04/14 00:35:32;;;;;;;34.80;18.50;;;;;;;11.77;100.00;100908.05;105218;1263;59570;-80
2024/04/14 00:38:00;;;;;;;37.30;18.50;;;;;;;11.81;100.00;100907.80;105172;1263;71745;-77
2024/04/14 00:40:27;;;;;;;34.50;18.50;;;;;;;11.86;100.00;100907.53;105242;1263;63618;-74
2024/04/14 00:42:57;;;;;;;36.60;20.10;;;;;;;11.90;100.00;100903.31;105359;1263;71767;-75
2024/04/14 00:45:26;;;;;;;36.60;18.20;;;;;;;11.93;100.00;100903.61;105019;1267;60739;-75
2024/04/14 00:47:54;;;;;;;30.70;17.60;;;;;;;11.96;100.00;100900.30;105069;1263;60543;-73
2024/04/14 00:50:22;;;;;;;36.30;19.90;;;;;;;11.98;100.00;100899.09;105854;1251;73845;-75
2024/04/14 00:52:50;;;;;;;40.80;20.00;;;;;;;11.99;100.00;100896.90;105888;1256;63924;-77
2024/04/14 00:55:17;;;;;;;36.50;16.60;;;;;;;12.01;100.00;100892.80;105890;1251;72715;-78
2024/04/14 00:57:45;;;;;;;42.60;17.60;;;;;;;12.01;100.00;100889.79;105932;1254;63162;-77
2024/04/14 01:00:22;;;;;;;40.40;17.10;;;;;;;12.02;100.00;100886.05;105782;1251;60336;-76
2024/04/14 01:02:53;;;;;;;37.50;18.90;;;;;;;12.04;100.00;100888.42;105683;1251;73088;-77
2024/04/14 01:05:24;;;;;;;45.90;17.90;;;;;;;12.06;100.00;100889.19;105926;1256;63564;-76
2024/04/14 01:07:52;;;;;;;38.20;18.70;;;;;;;12.08;100.00;100891.47;105895;1251;72595;-78
2024/04/14 01:10:20;;;;;;;38.70;18.60;;;;;;;12.11;100.00;100888.49;105915;1255;61127;-79
2024/04/14 01:12:47;;;;;;;36.90;18.70;;;;;;;12.14;100.00;100893.08;105703;1257;60332;-79
2024/04/14 01:15:15;;;;;;;42.10;18.90;;;;;;;12.17;100.00;100894.25;105993;1251;74996;-75
2024/04/14 01:17:43;;;;;;;34.40;17.70;;;;;;;12.19;100.00;100894.85;105998;1256;63613;-76
2024/04/14 01:20:11;;;;;;;32.00;15.50;;;;;;;12.21;100.00;100898.39;105966;1251;72462;-77
2024/04/14 01:22:38;;;;;;;32.60;15.10;;;;;;;12.23;100.00;100900.53;105791;1251;60540;-76
2024/04/14 01:25:06;;;;;;;31.30;15.30;;;;;;;12.26;100.00;100904.42;105767;1255;60598;-76
2024/04/14 01:27:34;;;;;;;32.40;15.60;;;;;;;12.28;100.00;100906.00;105814;1251;73837;-76
2024/04/14 01:30:05;;;;;;;28.80;15.50;;;;;;;12.30;100.00;100905.54;105792;1251;61889;-77
2024/04/14 01:32:34;;;;;;;33.30;16.60;;;;;;;12.32;100.00;100901.38;105770;1256;70445;-79
2024/04/14 01:35:01;;;;;;;29.60;15.80;;;;;;;12.33;100.00;100898.70;105941;1251;60804;-78
2024/04/14 01:37:29;;;;;;;32.20;14.80;;;;;;;12.35;100.00;100897.02;105731;1251;60311;-78
2024/04/14 01:39:56;;;;;;;27.70;15.10;;;;;;;12.36;100.00;100901.14;105703;1256;71721;-76
2024/04/14 01:42:24;;;;;;;27.20;13.30;;;;;;;12.38;100.00;100895.59;105932;1256;62273;-76
2024/04/14 01:44:52;;;;;;;25.30;13.70;;;;;;;12.40;100.00;100896.86;105865;1256;71170;-77
2024/04/14 01:47:19;;;;;;;38.30;17.20;;;;;;;12.42;100.00;100897.26;106371;1251;61663;-76
2024/04/14 01:49:47;;;;;;;30.00;17.10;;;;;;;12.43;100.00;100899.96;105895;1251;60453;-75
2024/04/14 01:52:14;;;;;;;32.20;17.40;;;;;;;12.46;100.00;100900.20;105955;1256;74663;-77
2024/04/14 01:54:42;;;;;;;30.50;17.60;;;;;;;12.47;100.00;100902.40;106002;1251;62284;-76
2024/04/14 01:57:09;;;;;;;32.00;16.70;;;;;;;12.49;100.00;100904.00;105992;1251;72737;-76
2024/04/14 01:59:37;;;;;;;31.40;16.40;;;;;;;12.52;100.00;100899.27;105742;1253;60461;-78
2024/04/14 02:02:04;;;;;;;34.70;18.70;;;;;;;12.54;100.00;100901.95;105807;1253;60447;-77
2024/04/14 02:04:32;;;;;;;28.90;15.80;;;;;;;12.55;100.00;100902.77;105694;1251;73626;-78
2024/04/14 02:07:00;;;;;;;32.20;14.90;;;;;;;12.56;100.00;100898.80;105846;1253;62483;-78
2024/04/14 02:09:27;;;;;;;24.60;14.30;;;;;;;12.58;100.00;100897.14;105790;1256;72651;-76
2024/04/14 02:11:55;;;;;;;23.50;14.80;;;;;;;12.59;100.00;100899.89;105799;1256;61653;-77
2024/04/14 02:14:22;;;;;;;23.50;13.60;;;;;;;12.59;100.00;100900.36;105727;1253;60431;-78
2024/04/14 02:16:49;;;;;;;22.20;12.50;;;;;;;12.60;100.00;100902.79;105767;1253;72632;-77
2024/04/14 02:19:17;;;;;;;26.40;14.20;;;;;;;12.60;100.00;100902.61;105814;1251;62494;-75
2024/04/14 02:21:45;;;;;;;23.60;14.40;;;;;;;12.59;100.00;100903.58;105743;1254;70445;-78
2024/04/14 02:24:13;;;;;;;26.20;14.00;;;;;;;12.56;100.00;100910.94;105779;1252;60770;-79
2024/04/14 02:26:41;;;;;;;27.10;15.40;;;;;;;12.52;100.00;100915.55;105796;1251;60378;-75
2024/04/14 02:29:08;;;;;;;25.00;14.90;;;;;;;12.49;100.00;100917.89;105783;1255;73829;-78
2024/04/14 02:31:35;;;;;;;31.20;17.20;;;;;;;12.44;100.00;100919.55;105820;1254;64283;-79
2024/04/14 02:34:02;;;;;;;25.60;15.50;;;;;;;12.40;100.00;100917.55;105739;1256;71720;-78
2024/04/14 02:36:30;;;;;;;29.30;15.70;;;;;;;12.37;100.00;100924.23;105758;1252;61661;-75
2024/04/14 02:38:57;;;;;;;28.20;16.70;;;;;;;12.33;100.00;100926.20;105877;1255;60526;-76
2024/04/14 02:41:24;;;;;;;25.10;15.20;;;;;;;12.30;100.00;100929.58;105787;1256;73971;-76
2024/04/14 02:43:52;;;;;;;30.20;14.10;;;;;;;12.26;100.00;100935.06;105988;1254;63876;-78
2024/04/14 02:46:19;;;;;;;24.10;14.40;;;;;;;12.21;100.00;100936.94;105886;1253;70907;-78
2024/04/14 02:48:50;;;;;;;31.30;14.80;;;;;;;12.17;100.00;100940.70;105862;1256;60459;-77
2024/04/14 02:51:18;;;;;;;28.20;14.30;;;;;;;12.11;100.00;100948.30;105766;1251;60450;-74
2024/04/14 02:53:45;;;;;;;22.10;14.40;;;;;;;12.04;100.00;100947.98;105696;1251;73850;-75
2024/04/14 02:56:12;;;;;;;24.20;14.30;;;;;;;11.98;100.00;100953.10;105934;1251;63494;-77
2024/04/14 02:58:40;;;;;;;21.60;13.70;;;;;;;11.91;100.00;100955.10;105951;1252;71765;-74
2024/04/14 03:01:08;;;;;;;19.60;11.30;;;;;;;11.85;100.00;100955.08;105979;1256;61447;-75
2024/04/14 03:03:36;;;;;;;19.80;10.90;;;;;;;11.79;100.00;100952.96;105771;1255;60521;-74
2024/04/14 03:06:04;;;;;;;18.90;10.50;;;;;;;11.75;100.00;100953.38;105745;1251;72672;-74
2024/04/14 03:08:31;;;;;;;22.00;12.20;;;;;;;11.72;100.00;100953.01;105791;1255;63618;-74
2024/04/14 03:10:58;;;;;;;22.70;11.30;;;;;;;11.70;100.00;100953.88;105747;1256;72607;-74
2024/04/14 03:13:26;;;;;;;22.80;12.50;;;;;;;11.68;100.00;100952.79;105826;1255;60557;-75
2024/04/14 03:15:53;;;;;;;22.30;11.20;;;;;;;11.66;100.00;100948.81;105927;1251;60471;-75
2024/04/14 03:18:21;;;;;;;17.70;11.40;;;;;;;11.66;100.00;100952.52;105979;1255;72666;-75
2024/04/14 03:20:58;;;;;;;17.80;11.40;;;;;;;11.66;100.00;100951.84;105771;1251;63093;-75
2024/04/14 03:23:26;;;;;;;22.80;11.80;;;;;;;11.65;100.00;100952.04;105993;1252;71722;-76
2024/04/14 03:25:53;;;;;;;18.10;10.00;;;;;;;11.65;100.00;100951.70;105822;1250;61925;-77
2024/04/14 03:28:27;;;;;;;16.70;11.40;;;;;;;11.66;100.00;100949.34;105721;1253;60402;-77
2024/04/14 03:30:58;;;;;;;17.50;12.20;;;;;;;11.67;100.00;100948.94;106018;1251;72623;-76
2024/04/14 03:33:27;;;;;;;21.30;11.30;;;;;;;11.69;100.00;100951.13;106051;1252;63680;-78
2024/04/14 03:36:05;;;;;;;15.20;10.00;;;;;;;11.69;100.00;100947.27;106022;1254;71766;-75
2024/04/14 03:38:32;;;;;;;15.90;11.40;;;;;;;11.69;100.00;100944.81;105790;1255;61678;-75
2024/04/14 03:41:00;;;;;;;22.70;12.70;;;;;;;11.69;100.00;100948.66;105835;1253;60360;-77
2024/04/14 03:43:28;;;;;;;21.40;11.90;;;;;;;11.69;100.00;100944.80;105703;1255;73964;-76
2024/04/14 03:45:55;;;;;;;16.70;11.50;;;;;;;11.70;100.00;100946.85;105703;1256;62778;-75
2024/04/14 03:48:23;;;;;;;22.80;12.30;;;;;;;11.72;100.00;100945.51;105782;1251;71516;-75
2024/04/14 03:50:52;;;;;;;18.90;12.10;;;;;;;11.76;100.00;100946.52;105726;1252;61756;-75
2024/04/14 03:53:20;;;;;;;22.10;11.80;;;;;;;11.82;100.00;100946.98;105859;1256;60426;-75
2024/04/14 03:55:48;;;;;;;17.60;12.30;;;;;;;11.92;100.00;100954.65;105934;1254;73844;-76
2024/04/14 03:58:15;;;;;;;16.30;12.80;;;;;;;12.03;100.00;100955.95;106043;1254;64494;-75
2024/04/14 04:00:44;;;;;;;17.80;11.40;;;;;;;12.13;100.00;100953.94;105784;1251;71285;-76
2024/04/14 04:03:14;;;;;;;21.00;11.40;;;;;;;12.22;100.00;100952.84;105924;1250;60853;-75
2024/04/14 04:05:52;;;;;;;18.60;12.00;;;;;;;12.31;100.00;100954.77;105910;1254;60472;-75
2024/04/14 04:08:21;;;;;;;16.20;11.10;;;;;;;12.40;100.00;100961.02;105947;1256;74231;-75
2024/04/14 04:11:04;;;;;;;18.20;12.00;;;;;;;12.50;100.00;100959.55;105887;1254;63754;-77
2024/04/14 04:13:31;;;;;;;16.80;11.00;;;;;;;12.61;100.00;100960.94;105846;1254;71912;-76
2024/04/14 04:16:01;;;;;;;28.30;11.60;;;;;;;12.71;100.00;100959.95;105898;1251;62303;-74
2024/04/14 04:18:28;;;;;;;25.10;11.20;;;;;;;12.81;100.00;100963.69;106065;1251;60539;-76
2024/04/14 04:20:58;;;;;;;21.30;11.80;;;;;;;12.90;100.00;100959.81;105894;1250;73931;-76
2024/04/14 04:23:29;;;;;;;20.70;11.40;;;;;;;12.97;100.00;100961.14;105905;1250;63806;-77
2024/04/14 04:25:57;;;;;;;22.70;11.10;;;;;;;13.02;100.00;100967.44;105836;1250;73040;-76
2024/04/14 04:28:27;;;;;;;14.40;9.40;;;;;;;13.12;100.00;100969.44;105905;1254;61360;-76
2024/04/14 04:30:55;;;;;;;16.10;11.00;;;;;;;13.21;100.00;100964.31;106087;1255;61174;-73
2024/04/14 04:33:27;;;;;;;18.20;9.30;;;;;;;13.30;100.00;100965.15;105994;1250;73870;-78
2024/04/14 04:35:56;;;;;;;15.20;8.00;;;;;;;13.42;100.00;100971.93;106360;1251;62464;-74
2024/04/14 04:38:24;;;;;;;17.20;9.30;;;;;;;13.56;100.00;100976.23;106006;1251;73439;-77
2024/04/14 04:40:52;;;;;;;15.90;7.20;;;;;;;13.75;100.00;100979.52;105989;1254;61355;-77
2024/04/14 04:43:21;;;;;;;14.40;7.60;;;;;;;13.97;100.00;100977.36;106010;1250;61144;-78
2024/04/14 04:45:49;;;;;;;9.90;7.10;;;;;;;14.18;100.00;100975.70;106078;1250;74846;-76
2024/04/14 04:48:16;;;;;;;9.00;5.90;;;;;;;14.35;100.00;100977.38;105935;1250;63815;-76
2024/04/14 04:50:45;;;;;;;11.00;6.10;;;;;;;14.53;100.00;100981.75;105954;1250;73150;-77
2024/04/14 04:53:14;;;;;;;10.10;6.80;;;;;;;14.80;100.00;100979.31;105898;1255;61307;-77
2024/04/14 04:55:44;;;;;;;9.60;6.10;;;;;;;15.17;100.00;100985.90;105922;1254;61228;-77
2024/04/14 04:58:11;;;;;;;10.90;5.90;;;;;;;15.66;100.00;100979.86;106120;1250;74646;-76
2024/04/14 05:00:39;;;;;;;9.30;5.30;;;;;;;16.26;100.00;100976.48;106094;1250;62823;-76
2024/04/14 05:03:07;;;;;;;7.20;6.00;;;;;;;16.94;100.00;100978.16;106005;1253;71495;-79
2024/04/14 05:05:35;;;;;;;7.40;4.50;;;;;;;17.66;100.00;100971.02;105962;1255;61774;-79
2024/04/14 05:08:03;;;;;;;7.40;5.40;;;;;;;18.36;100.00;100974.60;106027;1254;61231;-77
2024/04/14 05:10:31;;;;;;;10.30;5.20;;;;;;;19.02;100.00;100978.70;105888;1254;75309;-78
2024/04/14 05:12:58;;;;;;;7.30;4.90;;;;;;;19.67;100.00;100975.95;105858;1250;62893;-78
2024/04/14 05:15:26;;;;;;;8.30;4.60;;;;;;;20.24;91.74;100972.81;105813;1250;72918;-79
2024/04/14 05:17:53;;;;;;;5.30;4.70;;;;;;;20.68;81.70;100972.48;106060;1254;61247;-76
2024/04/14 05:20:20;;;;;;;9.40;4.60;;;;;;;21.03;76.45;100966.54;106019;1250;61286;-77
2024/04/14 05:22:48;;;;;;;6.80;3.80;;;;;;;21.41;70.55;100965.86;105740;1256;74354;-78
2024/04/14 05:25:15;;;;;;;6.00;4.00;;;;;;;21.81;67.81;100954.15;105900;1250;63465;-79
2024/04/14 05:27:42;;;;;;;5.80;4.00;;;;;;;22.26;64.38;100955.02;105910;1251;71548;-76
2024/04/14 05:30:10;;;;;;;6.10;4.60;;;;;;;22.68;59.20;100949.94;105835;1254;61328;-77
2024/04/14 05:32:37;;;;;;;6.10;4.30;;;;;;;22.98;56.30;100948.73;105807;1254;61298;-80
2024/04/14 05:35:07;;;;;;;5.40;4.20;;;;;;;23.23;54.19;100949.55;105915;1256;74767;-78
2024/04/14 05:37:34;;;;;;;10.20;4.60;;;;;;;23.43;52.51;100956.57;105917;1253;64251;-79
2024/04/14 05:40:01;;;;;;;7.60;4.20;;;;;;;23.57;51.45;100953.91;106031;1254;71595;-76
2024/04/14 05:42:29;;;;;;;6.70;4.40;;;;;;;23.81;51.61;100953.77;105920;1254;61248;-78
2024/04/14 05:44:56;;;;;;;7.20;4.60;;;;;;;24.14;49.17;100949.20;105849;1256;61150;-80
2024/04/14 05:47:23;;;;;;;10.00;4.00;;;;;;;24.46;48.04;100948.67;105933;1250;74669;-79
2024/04/14 05:49:52;;;;;;;5.50;4.00;;;;;;;24.78;47.00;100951.10;105923;1250;62243;-77
2024/04/14 05:52:21;;;;;;;10.40;4.40;;;;;;;25.09;45.60;100951.98;106383;1250;71613;-78
2024/04/14 05:54:48;;;;;;;6.60;3.70;;;;;;;25.27;43.43;100951.15;106152;1251;61276;-78
2024/04/14 05:57:15;;;;;;;11.40;4.20;;;;;;;25.22;42.77;100953.98;106019;1255;61227;-79
2024/04/14 05:59:46;;;;;;;3.80;3.40;;;;;;;25.16;42.71;100949.13;106039;1254;75317;-79
2024/04/14 06:02:14;;;;;;;6.40;3.20;;;;;;;25.11;42.91;100951.89;105942;1250;63772;-79
2024/04/14 06:04:45;;;;;;;6.00;2.80;;;;;;;25.21;43.43;100945.23;106032;1250;72675;-78
2024/04/14 06:07:12;;;;;;;5.50;3.70;;;;;;;25.31;42.97;100946.60;106001;1251;61344;-78
2024/04/14 06:09:40;;;;;;;4.40;3.10;;;;;;;25.42;42.12;100945.76;105906;1252;61238;-79
2024/04/14 06:12:07;;;;;;;5.50;2.80;;;;;;;25.62;41.70;100946.44;105930;1254;74660;-79
2024/04/14 06:14:35;;;;;;;4.80;3.20;;;;;;;25.93;41.39;100947.75;105922;1250;63623;-78
2024/04/14 06:17:02;;;;;;;3.30;2.90;;;;;;;26.28;40.19;100943.44;105940;1250;73334;-78
2024/04/14 06:19:30;;;;;;;2.90;2.50;;;;;;;26.64;39.85;100937.55;105824;1250;61243;-78
2024/04/14 06:21:57;;;;;;;4.10;2.40;;;;;;;27.04;38.74;100940.20;105811;1256;61231;-80
2024/04/14 06:24:25;;;;;;;5.20;2.30;;;;;;;27.36;37.93;100939.04;105832;1256;74463;-79
2024/04/14 06:26:53;;;;;;;2.60;2.30;;;;;;;27.56;37.25;100939.23;106056;1250;62298;-78
2024/04/14 06:29:20;;;;;;;4.70;2.10;;;;;;;27.81;36.78;100942.11;105988;1250;70958;-80
2024/04/14 06:31:48;;;;;;;5.60;2.70;;;;;;;27.98;35.72;100938.12;105978;1250;61352;-79
2024/04/14 06:34:15;;;;;;;4.30;2.30;;;;;;;28.00;35.43;100934.73;105915;1254;61227;-75
2024/04/14 06:36:42;;;;;;;4.30;2.30;;;;;;;28.13;35.41;100933.43;105800;1256;74792;-74
2024/04/14 06:39:11;;;;;;;6.20;2.70;;;;;;;28.23;34.80;100925.88;105865;1250;61819;-78
2024/04/14 06:41:39;;;;;;;2.80;1.80;;;;;;;28.34;34.32;100925.42;105833;1251;73590;-78
2024/04/14 06:44:06;;;;;;;4.10;2.10;;;;;;;28.41;34.66;100924.58;105830;1254;61343;-80
2024/04/14 06:46:34;;;;;;;3.70;1.50;;;;;;;28.56;34.15;100924.83;105811;1256;61232;-78
2024/04/14 06:49:01;;;;;;;5.30;1.70;;;;;;;28.80;34.09;100923.97;106021;1250;73351;-80
2024/04/14 06:51:29;;;;;;;5.60;1.90;;;;;;;28.98;33.36;100927.98;105934;1254;65709;-79
2024/04/14 06:53:56;;;;;;;12.10;1.60;;;;;;;29.15;32.97;100928.65;105970;1256;72714;-81
2024/04/14 06:56:23;;;;;;;2.20;1.70;;;;;;;29.31;32.58;100925.77;105872;1255;61279;-79
2024/04/14 06:58:50;;;;;;;4.10;2.00;;;;;;;29.22;32.05;100924.45;106031;1250;61284;-79
2024/04/14 07:01:18;;;;;;;3.20;1.40;;;;;;;29.25;32.53;100924.04;105880;1254;73979;-79
2024/04/14 07:03:45;;;;;;;4.00;1.70;;;;;;;29.37;31.95;100924.61;105776;1250;63105;-80
2024/04/14 07:06:12;;;;;;;2.70;1.40;;;;;;;29.33;31.46;100923.95;105887;1250;73753;-79
2024/04/14 07:08:40;;;;;;;2.10;1.40;;;;;;;29.24;31.68;100920.14;105823;1250;61703;-82
2024/04/14 07:11:07;;;;;;;1.90;1.20;;;;;;;29.28;31.93;100923.23;105922;1250;61326;-79
2024/04/14 07:13:35;;;;;;;3.40;1.40;;;;;;;29.51;31.97;100923.98;105830;1250;77088;-82
2024/04/14 07:16:02;;;;;;;4.30;1.30;;;;;;;29.85;31.20;100926.64;105890;1250;66424;-81
2024/04/14 07:18:29;;;;;;;1.00;0.90;;;;;;;30.09;30.53;100922.70;105907;1250;72012;-81
2024/04/14 07:21:02;;;;;;;1.40;1.30;;;;;;;30.15;29.70;100921.69;105952;1250;62122;-81
2024/04/14 07:23:31;;;;;;;5.50;1.50;;;;;;;30.17;30.11;100915.48;105938;1254;61292;-80
2024/04/14 07:25:59;;;;;;;3.70;1.30;;;;;;;30.33;29.87;100913.61;105874;1250;74853;-80
2024/04/14 07:28:26;;;;;;;2.00;1.30;;;;;;;30.51;30.54;100913.76;105929;1254;66566;-80
2024/04/14 07:30:53;;;;;;;1.80;1.30;;;;;;;30.83;29.96;100915.70;105918;1256;75503;-83
2024/04/14 07:33:21;;;;;;;2.40;1.60;;;;;;;31.03;28.85;100908.56;105907;1256;61218;-82
2024/04/14 07:35:49;;;;;;;2.20;1.50;;;;;;;31.14;28.61;100909.40;106219;1256;61118;-85
2024/04/14 07:38:16;;;;;;;2.00;1.10;;;;;;;31.07;28.21;100907.95;106684;1256;75385;-81
2024/04/14 07:40:43;;;;;;;2.40;1.20;;;;;;;31.04;28.86;100905.02;107885;1250;65101;-80
2024/04/14 07:43:11;;;;;;;5.70;2.30;;;;;;;31.16;28.54;100907.43;106348;1251;74801;-81
2024/04/14 07:45:38;;;;;;;1.80;1.40;;;;;;;31.29;28.43;100906.11;106103;1251;61405;-82
2024/04/14 07:48:06;;;;;;;3.50;1.40;;;;;;;31.46;27.98;100906.30;106067;1257;61234;-82
2024/04/14 07:50:36;;;;;;;5.40;1.70;;;;;;;31.71;27.82;100900.64;105975;1250;76827;-82
2024/04/14 07:53:03;;;;;;;2.40;1.20;;;;;;;31.93;27.54;100895.17;106159;1256;64147;-82
2024/04/14 07:55:30;;;;;;;3.20;1.50;;;;;;;32.07;27.26;100890.07;105824;1256;74017;-82
2024/04/14 07:57:58;;;;;;;5.80;2.10;;;;;;;32.19;26.93;100888.95;106064;1253;61272;-82
2024/04/14 08:00:26;;;;;;;2.90;2.70;;;;;;;32.23;26.53;100896.66;106284;1255;61155;-78
2024/04/14 08:02:53;;;;;;;2.50;2.30;;;;;;;32.09;26.70;100887.36;106120;1256;76969;-82
2024/04/14 08:05:20;;;;;;;5.10;2.90;;;;;;;31.74;27.13;100893.16;105865;1256;64492;-83
2024/04/14 08:07:48;;;;;;;3.10;2.40;;;;;;;31.49;27.65;100888.60;105981;1250;72008;-80
2024/04/14 08:10:16;;;;;;;2.20;2.00;;;;;;;31.44;27.90;100883.34;106022;1250;62419;-81
2024/04/14 08:12:46;;;;;;;2.80;2.60;;;;;;;31.49;28.16;100881.05;105861;1256;61148;-80
2024/04/14 08:15:13;;;;;;;3.30;2.00;;;;;;;31.69;28.36;100882.97;105953;1250;75721;-81
2024/04/14 08:17:40;;;;;;;4.80;2.40;;;;;;;31.94;27.98;100877.59;106063;1250;62272;-83
2024/04/14 08:20:09;;;;;;;2.50;2.30;;;;;;;32.13;27.39;100877.96;105952;1256;73039;-82
2024/04/14 08:22:36;;;;;;;3.40;2.90;;;;;;;32.23;27.34;100879.34;105996;1251;61350;-84
2024/04/14 08:25:04;;;;;;;2.00;1.80;;;;;;;32.38;26.78;100875.23;106039;1256;61161;-83
2024/04/14 08:27:31;;;;;;;10.00;3.20;;;;;;;32.49;26.90;100871.17;106153;1256;76571;-80
2024/04/14 08:29:59;;;;;;;5.80;3.00;;;;;;;32.71;27.20;100873.62;106299;1256;64445;-82
2024/04/14 08:32:26;;;;;;;9.00;2.80;;;;;;;32.86;25.65;100873.29;105969;1255;75457;-84
2024/04/14 08:34:55;;;;;;;6.40;2.80;;;;;;;32.63;25.15;100871.02;105938;1256;61161;-84
2024/04/14 08:37:23;;;;;;;9.80;4.00;;;;;;;32.51;25.89;100867.33;105947;1251;61221;-78
2024/04/14 08:39:51;;;;;;;3.90;3.50;;;;;;;32.63;25.73;100864.30;105955;1250;76641;-82
2024/04/14 08:42:18;;;;;;;8.60;3.20;;;;;;;32.49;25.35;100865.91;106059;1250;65635;-84
2024/04/14 08:44:47;;;;;;;6.10;3.60;;;;;;;32.27;25.33;100863.33;105806;1250;74704;-84
2024/04/14 08:47:18;;;;;;;10.20;4.00;;;;;;;32.17;25.89;100858.04;105822;1256;61569;-84
2024/04/14 08:49:45;;;;;;;13.30;4.30;;;;;;;32.22;25.40;100851.84;106092;1256;61248;-80
2024/04/14 08:52:14;;;;;;;9.30;5.50;;;;;;;32.19;25.96;100846.60;106034;1250;73348;-82
2024/04/14 08:54:42;;;;;;;10.00;5.50;;;;;;;32.39;25.74;100846.95;105985;1250;65617;-83
2024/04/14 08:57:13;;;;;;;9.70;5.00;;;;;;;32.54;25.44;100843.63;105871;1250;73554;-86
2024/04/14 08:59:41;;;;;;;11.30;4.50;;;;;;;32.48;24.60;100837.98;105888;1250;61301;-85
2024/04/14 09:02:10;;;;;;;10.10;5.40;;;;;;;32.34;25.35;100837.13;106042;1254;61336;-86
2024/04/14 09:04:39;;;;;;;8.50;5.10;;;;;;;32.42;25.65;100832.23;106045;1256;75659;-82
2024/04/14 09:07:06;;;;;;;8.30;5.50;;;;;;;32.56;25.37;100830.97;106108;1254;64633;-83
2024/04/14 09:09:35;;;;;;;5.80;4.10;;;;;;;32.65;24.91;100832.77;105953;1254;73876;-83
2024/04/14 09:12:02;;;;;;;6.40;4.00;;;;;;;32.66;25.27;100834.88;106148;1256;62061;-82
2024/04/14 09:14:30;;;;;;;10.50;4.10;;;;;;;32.63;24.93;100836.65;106295;1254;61178;-84
2024/04/14 09:16:57;;;;;;;9.10;4.10;;;;;;;32.51;25.54;100829.76;106031;1256;74423;-84
2024/04/14 09:19:25;;;;;;;5.60;4.10;;;;;;;32.60;25.68;100832.39;106103;1250;66006;-80
2024/04/14 09:21:53;;;;;;;11.40;4.30;;;;;;;32.60;25.23;100829.03;105952;1254;72734;-84
2024/04/14 09:24:21;;;;;;;7.20;3.60;;;;;;;32.54;25.60;100826.25;106016;1256;61203;-87
2024/04/14 09:26:48;;;;;;;7.70;3.70;;;;;;;32.46;25.47;100820.82;105992;1250;61327;-83
2024/04/14 09:29:15;;;;;;;10.20;3.60;;;;;;;32.33;25.45;100819.82;105924;1251;74876;-83
2024/04/14 09:31:43;;;;;;;7.80;3.70;;;;;;;32.26;25.80;100821.27;105846;1250;65090;-86
2024/04/14 09:34:10;;;;;;;8.50;3.80;;;;;;;32.27;25.85;100813.59;105936;1250;74744;-85
2024/04/14 09:36:37;;;;;;;5.40;3.50;;;;;;;32.35;25.64;100814.44;105896;1256;61419;-85
2024/04/14 09:39:06;;;;;;;5.60;3.50;;;;;;;32.24;25.50;100808.34;105873;1253;61121;-83
2024/04/14 09:41:34;;;;;;;8.20;3.60;;;;;;;32.22;25.92;100813.66;105783;1250;74047;-84
2024/04/14 09:44:01;;;;;;;6.70;3.90;;;;;;;32.16;25.89;100807.07;105861;1256;63011;-86
2024/04/14 09:46:29;;;;;;;11.80;4.10;;;;;;;32.26;25.96;100798.90;105744;1259;71310;-87
2024/04/14 09:48:56;;;;;;;9.20;3.60;;;;;;;32.50;26.31;100801.77;105882;1250;61440;-86
2024/04/14 09:51:24;;;;;;;8.50;3.30;;;;;;;32.55;25.95;100798.82;105862;1250;61308;-87
2024/04/14 09:53:52;;;;;;;7.00;2.80;;;;;;;32.62;25.66;100796.27;106017;1250;75009;-86
2024/04/14 09:56:19;;;;;;;5.50;2.80;;;;;;;32.70;25.50;100790.81;105930;1255;65959;-84
2024/04/14 09:58:47;;;;;;;6.00;2.90;;;;;;;32.80;25.34;100780.20;106344;1250;74842;-86
2024/04/14 10:01:17;;;;;;;6.00;3.30;;;;;;;32.92;25.83;100783.62;106015;1251;61406;-82
2024/04/14 10:03:44;;;;;;;6.00;3.40;;;;;;;33.06;25.45;100779.59;106113;1254;61254;-83
2024/04/14 10:06:11;;;;;;;6.00;3.60;;;;;;;33.22;25.45;100773.81;106155;1255;76830;-83
2024/04/14 10:08:39;;;;;;;5.70;3.30;;;;;;;33.37;24.74;100782.09;106299;1257;64344;-84
2024/04/14 10:11:06;;;;;;;5.40;3.20;;;;;;;33.44;24.63;100776.19;105844;1254;74254;-84
2024/04/14 10:13:51;;;;;;;7.10;3.40;;;;;;;33.41;24.31;100775.14;106040;1256;61363;-87
2024/04/14 10:16:19;;;;;;;6.00;3.60;;;;;;;33.25;24.34;100770.52;105854;1257;62489;-86
2024/04/14 10:18:47;;;;;;;9.10;3.50;;;;;;;33.03;24.50;100765.60;106014;1252;74270;-84
2024/04/14 10:21:17;;;;;;;8.50;3.60;;;;;;;32.93;25.03;100765.76;105968;1250;65916;-84
2024/04/14 10:23:49;;;;;;;4.90;3.40;;;;;;;32.85;24.96;100762.05;105877;1256;73059;-83
2024/04/14 10:26:19;;;;;;;4.90;3.80;;;;;;;32.65;24.81;100761.09;105928;1250;61233;-83
2024/04/14 10:28:49;;;;;;;6.90;3.60;;;;;;;32.34;25.14;100751.19;106012;1254;62270;-84
2024/04/14 10:31:42;;;;;;;8.30;3.90;;;;;;;32.17;25.45;100751.58;106044;1250;76679;-85
2024/04/14 10:34:11;;;;;;;6.50;4.50;;;;;;;32.10;25.96;100748.29;105961;1256;65445;-83
2024/04/14 10:36:42;;;;;;;5.50;3.90;;;;;;;32.19;25.99;100745.91;106063;1251;74849;-84
2024/04/14 10:39:13;;;;;;;6.00;3.90;;;;;;;32.36;25.65;100748.57;105754;1256;61802;-87
2024/04/14 10:41:41;;;;;;;7.20;3.50;;;;;;;32.39;25.44;100746.68;105811;1250;62326;-85
2024/04/14 10:44:15;;;;;;;10.00;3.90;;;;;;;32.24;25.41;100746.33;105937;1250;73731;-86
2024/04/14 10:46:44;;;;;;;5.20;2.70;;;;;;;32.22;25.65;100739.04;105930;1252;64857;-84
2024/04/14 10:49:12;;;;;;;4.60;3.10;;;;;;;32.33;25.48;100739.47;105984;1253;71508;-85
2024/04/14 10:51:40;;;;;;;3.80;2.60;;;;;;;32.42;25.08;100728.91;106075;1255;61541;-85
2024/04/14 10:54:07;;;;;;;8.50;3.20;;;;;;;32.48;24.92;100729.88;106018;1251;61319;-85
2024/04/14 10:56:35;;;;;;;6.30;2.70;;;;;;;32.62;25.18;100730.44;105851;1255;76761;-86
2024/04/14 10:59:02;;;;;;;10.80;3.80;;;;;;;32.75;24.95;100721.45;105934;1250;63317;-84
2024/04/14 11:01:30;;;;;;;5.70;2.60;;;;;;;32.61;24.80;100724.27;106090;1254;75445;-83
2024/04/14 11:03:57;;;;;;;7.10;3.10;;;;;;;32.20;24.83;100728.30;106075;1256;61245;-86
2024/04/14 11:06:25;;;;;;;13.30;10.60;;;;;;;31.80;25.74;100722.02;105966;1256;61276;-84
2024/04/14 11:08:54;;;;;;;10.00;3.40;;;;;;;31.73;25.64;100716.58;105906;1251;76851;-85
2024/04/14 11:11:21;;;;;;;7.40;3.20;;;;;;;31.77;25.93;100711.91;106036;1257;66155;-86
2024/04/14 11:13:49;;;;;;;8.70;3.50;;;;;;;31.77;25.86;100708.38;105835;1250;74940;-86